ACO weather

CLOSED Ascona Airport
Ascona, Canton of Ticino, Switzerland

Public forecast

Using degrees Celsius for public forecast. Weather courtesy of forecast.io.

Closest aviation weather report (METAR) to Ascona Airport

Closest report is Locarno Airport, 4.0 nm (7.5 km) E. Retrieved 2020/08/05 03:50 UTC (19 minutes ago):

LSZL 050350Z AUTO 06005KT 030V090 9999NDV NCD 16/07 Q1013 RMK

Closest aviation forecast (TAF) to Ascona Airport

Closest forecast is Malpensa International Airport, 31.7 nm (58.8 km) S. Retrieved 2020-08-05 00:00 UTC (4 hours ago):

TAF LIMC 042300Z 0500/0606 VRB05KT CAVOK